createdAt,value
2022-08-08T00:00:50.717Z,16.73
2022-08-08T00:03:13.250Z,17.48
2022-08-08T00:06:28.486Z,16.20
2022-08-08T00:09:23.804Z,17.38
2022-08-08T00:12:23.852Z,17.02
2022-08-08T00:15:56.697Z,17.10
2022-08-08T00:18:50.811Z,17.45
2022-08-08T00:21:39.538Z,15.98
2022-08-08T00:24:45.830Z,16.35
2022-08-08T00:27:23.921Z,16.42
2022-08-08T00:30:20.809Z,16.63
2022-08-08T00:33:01.959Z,17.65
2022-08-08T00:36:06.863Z,16.75
2022-08-08T00:41:06.863Z,17.88
2022-08-08T00:42:42.103Z,16.25
2022-08-08T00:45:49.832Z,16.80
2022-08-08T00:48:59.112Z,17.33
2022-08-08T00:52:20.023Z,18.30
2022-08-08T00:55:52.566Z,18.35
2022-08-08T00:59:03.820Z,16.50
2022-08-08T01:02:03.895Z,16.10
2022-08-08T01:05:59.571Z,17.40
2022-08-08T01:09:35.562Z,17.80
2022-08-08T01:12:45.817Z,17.73
2022-08-08T01:16:03.841Z,16.92
2022-08-08T01:19:11.608Z,17.40
2022-08-08T01:22:38.180Z,16.42
2022-08-08T01:26:11.254Z,18.17
2022-08-08T01:29:12.854Z,18.67
2022-08-08T01:32:28.125Z,16.40
2022-08-08T01:36:01.079Z,16.83
2022-08-08T01:39:04.889Z,17.35
2022-08-08T01:41:44.840Z,18.80
2022-08-08T01:45:22.856Z,17.52
2022-08-08T01:48:31.092Z,17.88
2022-08-08T01:52:52.238Z,17.42
2022-08-08T01:55:45.008Z,16.73
2022-08-08T01:58:16.850Z,17.27
2022-08-08T02:02:00.714Z,18.38
2022-08-08T02:04:56.854Z,17.77
2022-08-08T02:08:14.868Z,17.80
2022-08-08T02:11:03.929Z,18.00
2022-08-08T02:14:03.869Z,16.27
2022-08-08T02:17:03.775Z,19.15
2022-08-08T02:20:59.975Z,17.45
2022-08-08T02:23:32.951Z,16.85
2022-08-08T02:26:23.891Z,18.40
2022-08-08T02:29:00.084Z,16.85
2022-08-08T02:32:08.890Z,17.88
2022-08-08T02:35:18.259Z,17.33
2022-08-08T02:38:30.257Z,17.25
2022-08-08T02:41:59.183Z,15.57
2022-08-08T02:44:37.502Z,17.15
2022-08-08T02:48:30.897Z,19.08
2022-08-08T02:51:56.817Z,18.35
2022-08-08T02:54:50.184Z,17.55
2022-08-08T02:57:51.376Z,18.08
2022-08-08T03:00:56.998Z,18.83
2022-08-08T03:05:01.314Z,17.25
2022-08-08T03:07:41.363Z,16.55
2022-08-08T03:12:01.576Z,17.52
2022-08-08T03:16:00.295Z,17.98
2022-08-08T03:18:35.905Z,17.42
2022-08-08T03:21:41.044Z,16.80
2022-08-08T03:24:39.904Z,17.10
2022-08-08T03:27:27.975Z,18.42
2022-08-08T03:30:22.896Z,17.73
2022-08-08T03:33:55.230Z,19.77
2022-08-08T03:36:34.907Z,20.45
2022-08-08T03:39:24.956Z,19.77
2022-08-08T03:42:26.746Z,18.10
2022-08-08T03:46:06.367Z,19.63
2022-08-08T03:49:31.089Z,17.15
2022-08-08T03:51:51.478Z,15.82
2022-08-08T03:54:52.079Z,17.20
2022-08-08T03:58:35.298Z,18.40
2022-08-08T04:01:20.792Z,17.35
2022-08-08T04:04:02.277Z,16.90
2022-08-08T04:07:02.010Z,18.15
2022-08-08T04:09:57.416Z,18.77
2022-08-08T04:12:43.924Z,18.50
2022-08-08T04:15:30.391Z,16.10
2022-08-08T04:18:31.927Z,17.05
2022-08-08T04:21:23.119Z,17.70
2022-08-08T04:24:05.207Z,16.52
2022-08-08T04:26:57.103Z,16.48
2022-08-08T04:29:38.047Z,16.67
2022-08-08T04:32:30.201Z,16.67
2022-08-08T04:35:13.157Z,16.40
2022-08-08T04:37:53.946Z,16.30
2022-08-08T04:40:51.323Z,19.70
2022-08-08T04:43:46.138Z,19.15
2022-08-08T04:46:41.934Z,15.07
2022-08-08T04:50:01.197Z,14.35
2022-08-08T04:53:01.089Z,14.82
2022-08-08T04:55:56.251Z,14.93
2022-08-08T04:58:30.030Z,14.32
2022-08-08T05:01:16.945Z,14.48
2022-08-08T05:04:10.050Z,14.75
2022-08-08T05:06:57.940Z,14.10
2022-08-08T05:09:32.074Z,14.35
2022-08-08T05:12:20.523Z,15.88
2022-08-08T05:15:00.963Z,15.00
2022-08-08T05:17:54.489Z,14.65
2022-08-08T05:20:50.049Z,14.90
2022-08-08T05:23:30.960Z,12.75
2022-08-08T05:26:28.948Z,14.75
2022-08-08T05:29:09.999Z,17.27
2022-08-08T05:32:06.470Z,14.20
2022-08-08T05:34:55.991Z,13.77
2022-08-08T05:37:52.957Z,14.63
2022-08-08T05:40:40.995Z,14.38
2022-08-08T05:44:02.244Z,15.30
2022-08-08T05:46:29.954Z,13.27
2022-08-08T05:49:11.268Z,14.20
2022-08-08T05:51:58.009Z,15.07
2022-08-08T05:54:50.247Z,14.55
2022-08-08T05:58:04.632Z,13.23
2022-08-08T06:00:39.127Z,13.80
2022-08-08T06:03:33.625Z,15.13
2022-08-08T06:06:18.198Z,17.60
2022-08-08T06:09:58.856Z,16.10
2022-08-08T06:12:14.462Z,13.82
2022-08-08T06:15:16.211Z,14.13
2022-08-08T06:18:18.371Z,15.88
2022-08-08T06:21:03.578Z,11.68
2022-08-08T06:24:04.727Z,16.20
2022-08-08T06:26:59.021Z,15.40
2022-08-08T06:29:59.249Z,13.13
2022-08-08T06:32:53.994Z,13.30
2022-08-08T06:36:06.964Z,13.77
2022-08-08T06:38:35.064Z,14.63
2022-08-08T06:41:24.033Z,13.60
2022-08-08T06:44:05.127Z,14.13
2022-08-08T06:47:00.009Z,13.20
2022-08-08T06:49:55.744Z,13.63
2022-08-08T06:52:42.978Z,13.38
2022-08-08T06:55:22.679Z,15.35
2022-08-08T06:58:09.000Z,14.02
2022-08-08T07:00:52.008Z,13.20
2022-08-08T07:04:37.585Z,13.15
2022-08-08T07:06:57.022Z,14.32
2022-08-08T07:09:56.545Z,14.15
2022-08-08T07:12:48.018Z,14.25
2022-08-08T07:16:04.863Z,15.80
2022-08-08T07:19:07.085Z,13.18
2022-08-08T07:22:22.021Z,14.15
2022-08-08T07:25:19.413Z,13.93
2022-08-08T07:28:31.722Z,14.57
2022-08-08T07:31:26.012Z,14.20
2022-08-08T07:34:31.405Z,14.35
2022-08-08T07:37:56.400Z,17.10
2022-08-08T07:40:32.676Z,15.75
2022-08-08T07:43:14.105Z,14.40
2022-08-08T07:46:23.450Z,13.60
2022-08-08T07:49:22.029Z,15.15
2022-08-08T07:52:13.246Z,14.77
2022-08-08T07:55:12.207Z,15.10
2022-08-08T07:58:17.071Z,14.38
2022-08-08T08:01:06.131Z,15.05
2022-08-08T08:04:05.029Z,13.13
2022-08-08T08:07:00.069Z,15.57
2022-08-08T08:09:54.032Z,15.65
2022-08-08T08:12:44.063Z,15.48
2022-08-08T08:15:25.058Z,13.90
2022-08-08T08:18:31.856Z,16.55
2022-08-08T08:21:19.198Z,15.40
2022-08-08T08:24:02.793Z,15.25
2022-08-08T08:26:52.801Z,16.15
2022-08-08T08:29:29.192Z,15.60
2022-08-08T08:32:31.712Z,14.88
2022-08-08T08:35:09.141Z,15.15
2022-08-08T08:38:15.667Z,14.18
2022-08-08T08:40:51.349Z,14.27
2022-08-08T08:43:42.623Z,14.85
2022-08-08T08:46:20.165Z,15.38
2022-08-08T08:49:14.764Z,14.40
2022-08-08T08:51:51.067Z,13.07
2022-08-08T08:54:41.088Z,15.10
2022-08-08T08:57:17.521Z,15.18
2022-08-08T09:00:11.371Z,14.50
2022-08-08T09:02:57.099Z,17.50
2022-08-08T09:05:56.259Z,17.00
2022-08-08T09:08:49.805Z,15.50
2022-08-08T09:11:33.472Z,16.02
2022-08-08T09:14:28.107Z,13.88
2022-08-08T09:17:31.547Z,14.60
2022-08-08T09:21:56.665Z,14.38
2022-08-08T09:23:43.102Z,14.05
2022-08-08T09:26:26.166Z,15.20
2022-08-08T09:29:30.118Z,15.27
2022-08-08T09:32:14.412Z,13.85
2022-08-08T09:35:06.511Z,13.80
2022-08-08T09:38:01.076Z,16.67
2022-08-08T09:40:57.587Z,15.65
2022-08-08T09:44:04.941Z,15.95
2022-08-08T09:46:57.630Z,14.52
2022-08-08T09:50:01.499Z,13.68
2022-08-08T09:53:24.359Z,14.38
2022-08-08T09:56:22.117Z,15.55
2022-08-08T09:59:50.408Z,16.83
2022-08-08T10:02:36.126Z,15.13
2022-08-08T10:05:25.809Z,14.90
2022-08-08T10:08:00.090Z,16.05
2022-08-08T10:10:51.503Z,16.38
2022-08-08T10:13:38.392Z,15.35
2022-08-08T10:16:37.121Z,16.98
2022-08-08T10:19:25.126Z,16.20
2022-08-08T10:22:01.264Z,17.50
2022-08-08T10:24:54.126Z,15.75
2022-08-08T10:27:34.733Z,16.95
2022-08-08T10:30:57.022Z,17.55
2022-08-08T10:33:15.250Z,17.70
2022-08-08T10:36:22.454Z,16.33
2022-08-08T10:38:59.201Z,17.67
2022-08-08T10:42:13.065Z,17.00
2022-08-08T10:44:53.164Z,15.32
2022-08-08T10:47:48.716Z,18.90
2022-08-08T10:50:51.135Z,17.10
2022-08-08T10:53:57.205Z,17.17
2022-08-08T10:56:34.682Z,15.82
2022-08-08T10:59:22.152Z,17.80
2022-08-08T11:01:56.334Z,17.27
2022-08-08T11:04:54.136Z,16.52
2022-08-08T11:08:31.759Z,15.07
2022-08-08T11:10:42.162Z,14.75
2022-08-08T11:13:31.933Z,16.90
2022-08-08T11:16:32.461Z,17.13
2022-08-08T11:19:10.681Z,19.17
2022-08-08T11:22:04.219Z,18.00
2022-08-08T11:24:41.226Z,16.15
2022-08-08T11:27:37.518Z,15.52
2022-08-08T11:30:27.311Z,17.80
2022-08-08T11:33:23.167Z,18.98
2022-08-08T11:36:37.175Z,16.90
2022-08-08T11:39:25.228Z,18.25
2022-08-08T11:42:00.349Z,16.08
2022-08-08T11:44:47.161Z,16.38
2022-08-08T11:47:23.461Z,17.73
2022-08-08T11:50:29.792Z,18.17
2022-08-08T11:53:05.757Z,18.92
2022-08-08T11:55:57.191Z,19.33
2022-08-08T11:58:41.304Z,17.08
2022-08-08T12:01:38.205Z,17.50
2022-08-08T12:04:19.184Z,16.45
2022-08-08T12:07:16.750Z,17.50
2022-08-08T12:09:59.596Z,16.90
2022-08-08T12:12:48.818Z,17.33
2022-08-08T12:15:47.098Z,16.98
2022-08-08T12:18:41.200Z,17.67
2022-08-08T12:21:59.312Z,16.13
2022-08-08T12:24:56.307Z,16.13
2022-08-08T12:27:43.279Z,16.80
2022-08-08T12:30:37.194Z,17.20
2022-08-08T12:33:37.218Z,15.95
2022-08-08T12:36:28.619Z,15.25
2022-08-08T12:39:59.963Z,16.52
2022-08-08T12:42:27.409Z,16.30
2022-08-08T12:45:59.450Z,18.05
2022-08-08T12:48:50.577Z,18.73
2022-08-08T12:52:00.282Z,17.13
2022-08-08T12:54:48.223Z,16.02
2022-08-08T12:57:31.212Z,16.30
2022-08-08T13:00:20.362Z,16.13
2022-08-08T13:03:12.209Z,16.83
2022-08-08T13:06:20.238Z,15.40
2022-08-08T13:08:57.361Z,16.38
2022-08-08T13:12:24.713Z,17.00
2022-08-08T13:15:01.228Z,16.17
2022-08-08T13:18:07.930Z,16.77
2022-08-08T13:20:50.314Z,15.85
2022-08-08T13:23:46.281Z,16.13
2022-08-08T13:26:20.319Z,17.70
2022-08-08T13:29:19.224Z,15.70
2022-08-08T13:31:56.340Z,16.23
2022-08-08T13:34:45.228Z,15.98
2022-08-08T13:37:52.193Z,16.48
2022-08-08T13:40:41.419Z,15.80
2022-08-08T13:43:26.048Z,15.55
2022-08-08T13:46:28.741Z,15.30
2022-08-08T13:50:34.978Z,14.50
2022-08-08T13:52:23.348Z,15.20
2022-08-08T13:55:28.043Z,15.82
2022-08-08T13:58:17.056Z,17.52
2022-08-08T14:01:04.299Z,15.88
2022-08-08T14:03:54.353Z,15.15
2022-08-08T14:06:58.265Z,14.93
2022-08-08T14:10:04.369Z,18.15
2022-08-08T14:12:43.741Z,16.08
2022-08-08T14:15:46.099Z,17.52
2022-08-08T14:18:36.089Z,17.25
2022-08-08T14:21:53.820Z,18.13
2022-08-08T14:24:45.305Z,17.42
2022-08-08T14:27:41.367Z,15.70
2022-08-08T14:30:28.309Z,14.57
2022-08-08T14:33:02.337Z,15.90
2022-08-08T14:36:09.387Z,14.30
2022-08-08T14:38:51.828Z,15.50
2022-08-08T14:41:53.549Z,16.30
2022-08-08T14:44:35.780Z,15.55
2022-08-08T14:47:36.465Z,15.55
2022-08-08T14:50:38.411Z,14.48
2022-08-08T14:53:20.271Z,16.48
2022-08-08T14:56:07.307Z,15.23
2022-08-08T14:58:43.426Z,16.67
2022-08-08T15:01:46.362Z,15.90
2022-08-08T15:04:24.359Z,16.05
2022-08-08T15:07:22.395Z,15.93
2022-08-08T15:09:56.383Z,15.57
2022-08-08T15:12:43.306Z,16.33
2022-08-08T15:16:03.040Z,15.25
2022-08-08T15:18:31.294Z,15.43
2022-08-08T15:21:11.311Z,16.23
2022-08-08T15:23:59.307Z,14.77
2022-08-08T15:26:40.277Z,14.95
2022-08-08T15:29:35.322Z,16.42
2022-08-08T15:32:23.836Z,14.20
2022-08-08T15:34:58.408Z,14.98
2022-08-08T15:37:47.314Z,17.10
2022-08-08T15:40:28.165Z,14.07
2022-08-08T15:43:35.420Z,13.38
2022-08-08T15:46:15.305Z,15.40
2022-08-08T15:49:09.318Z,15.55
2022-08-08T15:51:57.315Z,14.82
2022-08-08T15:54:38.649Z,13.48
2022-08-08T15:57:35.245Z,15.32
2022-08-08T16:00:27.377Z,14.68
2022-08-08T16:03:16.318Z,15.93
2022-08-08T16:06:00.940Z,15.82
2022-08-08T16:13:00.600Z,16.98
2022-08-08T16:13:28.723Z,14.98
2022-08-08T16:14:53.762Z,14.23
2022-08-08T16:17:57.772Z,15.52
2022-08-08T16:20:34.338Z,15.35
2022-08-08T16:23:14.350Z,14.85
2022-08-08T16:26:17.468Z,15.18
2022-08-08T16:29:16.259Z,17.45
2022-08-08T16:32:03.355Z,16.58
2022-08-08T16:34:46.413Z,15.13
2022-08-08T16:37:33.314Z,14.48
2022-08-08T16:40:07.285Z,15.60
2022-08-08T16:42:54.541Z,15.48
2022-08-08T16:46:38.899Z,14.65
2022-08-08T16:48:49.355Z,16.17
2022-08-08T16:55:02.822Z,17.00
2022-08-08T16:55:04.278Z,16.17
2022-08-08T16:58:15.010Z,16.35
2022-08-08T17:01:09.297Z,17.15
2022-08-08T17:04:05.345Z,16.27
2022-08-08T17:06:52.352Z,14.75
2022-08-08T17:09:45.196Z,15.25
2022-08-08T17:12:41.494Z,15.75
2022-08-08T17:15:47.509Z,16.45
2022-08-08T17:18:39.377Z,14.18
2022-08-08T17:21:22.370Z,14.07
2022-08-08T17:24:27.038Z,15.23
2022-08-08T17:27:04.621Z,14.63
2022-08-08T17:29:56.656Z,15.43
2022-08-08T17:32:44.464Z,15.30
2022-08-08T17:35:56.048Z,13.80
2022-08-08T17:38:37.391Z,15.23
2022-08-08T17:41:38.836Z,14.38
2022-08-08T17:44:26.895Z,16.25
2022-08-08T17:47:23.118Z,16.60
2022-08-08T17:50:12.406Z,14.60
2022-08-08T17:52:47.925Z,14.02
2022-08-08T17:56:04.849Z,14.95
2022-08-08T17:58:34.399Z,13.88
2022-08-08T18:01:38.846Z,14.07
2022-08-08T18:04:49.356Z,15.00
2022-08-08T18:08:01.897Z,14.60
2022-08-08T18:10:58.407Z,15.35
2022-08-08T18:13:45.593Z,15.35
2022-08-08T18:16:23.262Z,15.13
2022-08-08T18:19:12.397Z,14.00
2022-08-08T18:22:01.732Z,15.40
2022-08-08T18:24:49.407Z,14.88
2022-08-08T18:27:23.888Z,15.15
2022-08-08T18:30:11.429Z,14.13
2022-08-08T18:32:51.413Z,14.23
2022-08-08T18:35:41.870Z,15.50
2022-08-08T18:38:29.840Z,17.15
2022-08-08T18:41:51.837Z,16.80
2022-08-08T18:44:32.939Z,16.33
2022-08-08T18:47:07.503Z,18.08
2022-08-08T18:49:58.619Z,15.18
2022-08-08T18:52:41.414Z,14.80
2022-08-08T18:55:29.432Z,15.98
2022-08-08T18:58:09.416Z,15.82
2022-08-08T19:00:56.409Z,15.68
2022-08-08T19:03:30.322Z,15.40
2022-08-08T19:06:36.405Z,16.60
2022-08-08T19:09:13.485Z,16.90
2022-08-08T19:12:00.427Z,16.25
2022-08-08T19:14:40.430Z,16.52
2022-08-08T19:17:48.473Z,16.30
2022-08-08T19:20:29.405Z,16.80
2022-08-08T19:23:17.441Z,16.98
2022-08-08T19:26:20.111Z,16.33
2022-08-08T19:29:02.441Z,18.95
2022-08-08T19:31:37.513Z,18.17
2022-08-08T19:34:36.168Z,17.98
2022-08-08T19:37:16.146Z,18.00
2022-08-08T19:40:03.415Z,18.52
2022-08-08T19:42:39.596Z,18.38
2022-08-08T19:45:59.880Z,19.45
2022-08-08T19:48:29.323Z,17.83
2022-08-08T19:51:25.123Z,17.95
2022-08-08T19:54:15.646Z,17.65
2022-08-08T19:57:04.238Z,18.60
2022-08-08T19:59:43.660Z,15.95
2022-08-08T20:02:32.488Z,15.18
2022-08-08T20:05:05.610Z,18.30
2022-08-08T20:08:29.375Z,17.52
2022-08-08T20:10:45.533Z,17.08
2022-08-08T20:14:12.684Z,17.33
2022-08-08T20:16:36.326Z,16.85
2022-08-08T20:19:42.049Z,16.10
2022-08-08T20:22:30.841Z,16.30
2022-08-08T20:25:06.551Z,15.75
2022-08-08T20:27:54.588Z,16.58
2022-08-08T20:30:55.710Z,16.38
2022-08-08T20:34:27.643Z,15.00
2022-08-08T20:36:42.473Z,16.75
2022-08-08T20:39:39.453Z,15.43
2022-08-08T20:42:35.491Z,15.18
2022-08-08T20:45:54.332Z,16.13
2022-08-08T20:48:43.467Z,16.58
2022-08-08T20:51:37.482Z,16.23
2022-08-08T20:54:31.486Z,15.65
2022-08-08T20:57:27.148Z,16.60
2022-08-08T21:00:21.493Z,16.88
2022-08-08T21:03:17.488Z,14.95
2022-08-08T21:06:06.640Z,16.00
2022-08-08T21:08:49.506Z,17.98
2022-08-08T21:11:51.706Z,17.48
2022-08-08T21:14:40.502Z,16.88
2022-08-08T21:17:20.492Z,15.80
2022-08-08T21:20:08.511Z,16.27
2022-08-08T21:22:48.702Z,17.17
2022-08-08T21:25:42.499Z,17.48
2022-08-08T21:28:33.452Z,17.50
2022-08-08T21:31:23.018Z,16.50
2022-08-08T21:34:10.513Z,16.80
2022-08-08T21:37:16.071Z,18.40
2022-08-08T21:40:10.555Z,16.63
2022-08-08T21:43:05.507Z,17.42
2022-08-08T21:48:04.359Z,17.33
2022-08-08T21:49:13.501Z,19.10
2022-08-08T21:54:36.543Z,18.58
2022-08-08T21:55:04.319Z,16.55
2022-08-08T21:58:05.491Z,16.88
2022-08-08T22:00:47.528Z,18.23
2022-08-08T22:03:41.509Z,18.92
2022-08-08T22:06:30.959Z,17.17
2022-08-08T22:09:20.578Z,17.13
2022-08-08T22:12:09.751Z,17.10
2022-08-08T22:15:05.526Z,18.45
2022-08-08T22:17:53.554Z,19.02
2022-08-08T22:20:28.629Z,17.35
2022-08-08T22:23:15.534Z,19.00
2022-08-08T22:26:27.089Z,18.13
2022-08-08T22:29:14.893Z,19.33
2022-08-08T22:31:58.374Z,18.60
2022-08-08T22:34:50.566Z,18.48
2022-08-08T22:37:48.737Z,18.17
2022-08-08T22:40:32.550Z,17.98
2022-08-08T22:43:06.624Z,19.23
2022-08-08T22:45:55.568Z,19.95
2022-08-08T22:48:29.643Z,17.42
2022-08-08T22:51:16.570Z,17.00
2022-08-08T22:54:31.949Z,17.42
2022-08-08T22:56:56.589Z,20.13
2022-08-08T22:59:36.162Z,18.63
2022-08-08T23:02:35.528Z,19.65
2022-08-08T23:05:14.368Z,20.65
2022-08-08T23:08:01.548Z,17.65
2022-08-08T23:10:34.644Z,18.95
2022-08-08T23:13:21.547Z,18.85
2022-08-08T23:16:40.004Z,18.27
2022-08-08T23:19:02.573Z,17.60
2022-08-08T23:21:35.636Z,19.98
2022-08-08T23:24:24.566Z,19.83
2022-08-08T23:27:05.572Z,20.00
2022-08-08T23:29:59.575Z,18.27
2022-08-08T23:32:46.562Z,23.05
2022-08-08T23:35:19.673Z,19.52
2022-08-08T23:38:06.566Z,20.00
2022-08-08T23:40:39.642Z,20.70
2022-08-08T23:43:31.543Z,17.20
2022-08-08T23:49:04.768Z,19.30
2022-08-08T23:49:27.589Z,19.27
2022-08-08T23:52:06.035Z,20.27
2022-08-08T23:55:07.380Z,19.45
2022-08-08T23:57:53.111Z,18.88
